<?xml version="1.0" encoding="UTF-8" standalone="no" ?>
<gpx xmlns="http://www.topografix.com/GPX/1/1" xmlns:xsi="http://www.w3.org/2001/XMLSchema-instance" xsi:schemaLocation="http://www.topografix.com/GPX/1/1 http://www.topografix.com/GPX/1/1/gpx.xsd" version="1.1" creator="VisuGPX - https://www.visugpx.com">
  <metadata>
    <name>2ème étape PLM 2018</name>
    <desc><![CDATA[2ème étape PLM 2018 : St-Marcel - St Ouen du Tilleul]]></desc>
  </metadata>
  <trk>
    <name><![CDATA[OR-8156697--Saint-Marcel:Vernon - Saint-Ouen-du-Tilleul]]></name>
    <trkseg>
      <trkpt lat="49.09525" lon="1.42752">
        <ele>140</ele>
        <time>2017-12-21T13:59:24Z</time>
      </trkpt>
      <trkpt lat="49.09478" lon="1.42797">
        <ele>140</ele>
        <time>2017-12-21T14:01:24Z</time>
      </trkpt>
      <trkpt lat="49.09539" lon="1.42921">
        <ele>139</ele>
        <time>2017-12-21T14:03:24Z</time>
      </trkpt>
      <trkpt lat="49.09551" lon="1.42981">
        <ele>138</ele>
        <time>2017-12-21T14:05:24Z</time>
      </trkpt>
      <trkpt lat="49.09531" lon="1.43005">
        <ele>137</ele>
        <time>2017-12-21T14:07:24Z</time>
      </trkpt>
      <trkpt lat="49.09544" lon="1.43046">
        <ele>136</ele>
        <time>2017-12-21T14:09:24Z</time>
      </trkpt>
      <trkpt lat="49.09576" lon="1.43037">
        <ele>136</ele>
        <time>2017-12-21T14:11:24Z</time>
      </trkpt>
      <trkpt lat="49.09584" lon="1.42996">
        <ele>137</ele>
        <time>2017-12-21T14:13:24Z</time>
      </trkpt>
      <trkpt lat="49.0968" lon="1.42981">
        <ele>137</ele>
        <time>2017-12-21T14:15:24Z</time>
      </trkpt>
      <trkpt lat="49.0986" lon="1.42956">
        <ele>136</ele>
        <time>2017-12-21T14:17:24Z</time>
      </trkpt>
      <trkpt lat="49.09999" lon="1.42908">
        <ele>138</ele>
        <time>2017-12-21T14:19:24Z</time>
      </trkpt>
      <trkpt lat="49.10242" lon="1.42762">
        <ele>140</ele>
        <time>2017-12-21T14:21:24Z</time>
      </trkpt>
      <trkpt lat="49.10646" lon="1.42548">
        <ele>142</ele>
        <time>2017-12-21T14:23:24Z</time>
      </trkpt>
      <trkpt lat="49.1075" lon="1.42423">
        <ele>140</ele>
        <time>2017-12-21T14:25:24Z</time>
      </trkpt>
      <trkpt lat="49.11315" lon="1.42544">
        <ele>128</ele>
        <time>2017-12-21T14:27:24Z</time>
      </trkpt>
      <trkpt lat="49.11444" lon="1.42617">
        <ele>121</ele>
        <time>2017-12-21T14:29:24Z</time>
      </trkpt>
      <trkpt lat="49.11478" lon="1.42466">
        <ele>132</ele>
        <time>2017-12-21T14:31:24Z</time>
      </trkpt>
      <trkpt lat="49.11472" lon="1.42432">
        <ele>134</ele>
        <time>2017-12-21T14:33:24Z</time>
      </trkpt>
      <trkpt lat="49.11506" lon="1.42359">
        <ele>136</ele>
        <time>2017-12-21T14:35:24Z</time>
      </trkpt>
      <trkpt lat="49.11627" lon="1.42389">
        <ele>137</ele>
        <time>2017-12-21T14:37:24Z</time>
      </trkpt>
      <trkpt lat="49.11852" lon="1.42505">
        <ele>132</ele>
        <time>2017-12-21T14:39:24Z</time>
      </trkpt>
      <trkpt lat="49.11941" lon="1.42569">
        <ele>132</ele>
        <time>2017-12-21T14:41:24Z</time>
      </trkpt>
      <trkpt lat="49.12043" lon="1.42582">
        <ele>132</ele>
        <time>2017-12-21T14:43:24Z</time>
      </trkpt>
      <trkpt lat="49.12152" lon="1.42441">
        <ele>133</ele>
        <time>2017-12-21T14:45:24Z</time>
      </trkpt>
      <trkpt lat="49.12259" lon="1.42419">
        <ele>133</ele>
        <time>2017-12-21T14:47:24Z</time>
      </trkpt>
      <trkpt lat="49.12427" lon="1.42222">
        <ele>129</ele>
        <time>2017-12-21T14:49:24Z</time>
      </trkpt>
      <trkpt lat="49.1245" lon="1.42102">
        <ele>129</ele>
        <time>2017-12-21T14:51:24Z</time>
      </trkpt>
      <trkpt lat="49.12447" lon="1.42059">
        <ele>130</ele>
        <time>2017-12-21T14:53:24Z</time>
      </trkpt>
      <trkpt lat="49.12405" lon="1.41775">
        <ele>138</ele>
        <time>2017-12-21T14:55:24Z</time>
      </trkpt>
      <trkpt lat="49.12366" lon="1.41591">
        <ele>140</ele>
        <time>2017-12-21T14:57:24Z</time>
      </trkpt>
      <trkpt lat="49.12301" lon="1.41209">
        <ele>138</ele>
        <time>2017-12-21T14:59:24Z</time>
      </trkpt>
      <trkpt lat="49.12256" lon="1.41029">
        <ele>126</ele>
        <time>2017-12-21T15:01:24Z</time>
      </trkpt>
      <trkpt lat="49.1229" lon="1.40926">
        <ele>118</ele>
        <time>2017-12-21T15:03:24Z</time>
      </trkpt>
      <trkpt lat="49.12335" lon="1.40909">
        <ele>112</ele>
        <time>2017-12-21T15:05:24Z</time>
      </trkpt>
      <trkpt lat="49.1243" lon="1.40733">
        <ele>89</ele>
        <time>2017-12-21T15:07:24Z</time>
      </trkpt>
      <trkpt lat="49.12444" lon="1.40651">
        <ele>89</ele>
        <time>2017-12-21T15:09:24Z</time>
      </trkpt>
      <trkpt lat="49.12492" lon="1.40703">
        <ele>82</ele>
        <time>2017-12-21T15:11:24Z</time>
      </trkpt>
      <trkpt lat="49.12542" lon="1.40638">
        <ele>79</ele>
        <time>2017-12-21T15:13:24Z</time>
      </trkpt>
      <trkpt lat="49.12604" lon="1.40621">
        <ele>73</ele>
        <time>2017-12-21T15:15:24Z</time>
      </trkpt>
      <trkpt lat="49.12641" lon="1.40552">
        <ele>66</ele>
        <time>2017-12-21T15:17:24Z</time>
      </trkpt>
      <trkpt lat="49.12689" lon="1.40484">
        <ele>52</ele>
        <time>2017-12-21T15:19:24Z</time>
      </trkpt>
      <trkpt lat="49.127" lon="1.40419">
        <ele>44</ele>
        <time>2017-12-21T15:21:24Z</time>
      </trkpt>
      <trkpt lat="49.12759" lon="1.40449">
        <ele>39</ele>
        <time>2017-12-21T15:23:24Z</time>
      </trkpt>
      <trkpt lat="49.12829" lon="1.40509">
        <ele>37</ele>
        <time>2017-12-21T15:25:24Z</time>
      </trkpt>
      <trkpt lat="49.12829" lon="1.40389">
        <ele>36</ele>
        <time>2017-12-21T15:27:24Z</time>
      </trkpt>
      <trkpt lat="49.1275" lon="1.40248">
        <ele>43</ele>
        <time>2017-12-21T15:29:24Z</time>
      </trkpt>
      <trkpt lat="49.12806" lon="1.40222">
        <ele>55</ele>
        <time>2017-12-21T15:31:24Z</time>
      </trkpt>
      <trkpt lat="49.12832" lon="1.40248">
        <ele>55</ele>
        <time>2017-12-21T15:33:24Z</time>
      </trkpt>
      <trkpt lat="49.12874" lon="1.40166">
        <ele>71</ele>
        <time>2017-12-21T15:35:24Z</time>
      </trkpt>
      <trkpt lat="49.12947" lon="1.39939">
        <ele>95</ele>
        <time>2017-12-21T15:37:24Z</time>
      </trkpt>
      <trkpt lat="49.12927" lon="1.39617">
        <ele>118</ele>
        <time>2017-12-21T15:39:24Z</time>
      </trkpt>
      <trkpt lat="49.12961" lon="1.39454">
        <ele>122</ele>
        <time>2017-12-21T15:41:24Z</time>
      </trkpt>
      <trkpt lat="49.12992" lon="1.39364">
        <ele>121</ele>
        <time>2017-12-21T15:43:24Z</time>
      </trkpt>
      <trkpt lat="49.13084" lon="1.39273">
        <ele>122</ele>
        <time>2017-12-21T15:45:24Z</time>
      </trkpt>
      <trkpt lat="49.12967" lon="1.39128">
        <ele>124</ele>
        <time>2017-12-21T15:47:24Z</time>
      </trkpt>
      <trkpt lat="49.12913" lon="1.3908">
        <ele>124</ele>
        <time>2017-12-21T15:49:24Z</time>
      </trkpt>
      <trkpt lat="49.12739" lon="1.38789">
        <ele>130</ele>
        <time>2017-12-21T15:51:24Z</time>
      </trkpt>
      <trkpt lat="49.12837" lon="1.38595">
        <ele>134</ele>
        <time>2017-12-21T15:53:24Z</time>
      </trkpt>
      <trkpt lat="49.12885" lon="1.38484">
        <ele>133</ele>
        <time>2017-12-21T15:55:24Z</time>
      </trkpt>
      <trkpt lat="49.12992" lon="1.38334">
        <ele>130</ele>
        <time>2017-12-21T15:57:24Z</time>
      </trkpt>
      <trkpt lat="49.13096" lon="1.37853">
        <ele>132</ele>
        <time>2017-12-21T15:59:24Z</time>
      </trkpt>
      <trkpt lat="49.13284" lon="1.3754">
        <ele>140</ele>
        <time>2017-12-21T16:01:24Z</time>
      </trkpt>
      <trkpt lat="49.13393" lon="1.37063">
        <ele>143</ele>
        <time>2017-12-21T16:03:24Z</time>
      </trkpt>
      <trkpt lat="49.1366" lon="1.36922">
        <ele>138</ele>
        <time>2017-12-21T16:05:24Z</time>
      </trkpt>
      <trkpt lat="49.14014" lon="1.36321">
        <ele>132</ele>
        <time>2017-12-21T16:07:24Z</time>
      </trkpt>
      <trkpt lat="49.14171" lon="1.35982">
        <ele>119</ele>
        <time>2017-12-21T16:09:24Z</time>
      </trkpt>
      <trkpt lat="49.14348" lon="1.35493">
        <ele>101</ele>
        <time>2017-12-21T16:11:24Z</time>
      </trkpt>
      <trkpt lat="49.14393" lon="1.3539">
        <ele>100</ele>
        <time>2017-12-21T16:13:24Z</time>
      </trkpt>
      <trkpt lat="49.14432" lon="1.35265">
        <ele>99</ele>
        <time>2017-12-21T16:15:24Z</time>
      </trkpt>
      <trkpt lat="49.14494" lon="1.35205">
        <ele>93</ele>
        <time>2017-12-21T16:17:24Z</time>
      </trkpt>
      <trkpt lat="49.14587" lon="1.35162">
        <ele>81</ele>
        <time>2017-12-21T16:19:24Z</time>
      </trkpt>
      <trkpt lat="49.1462" lon="1.35128">
        <ele>73</ele>
        <time>2017-12-21T16:21:24Z</time>
      </trkpt>
      <trkpt lat="49.14693" lon="1.349">
        <ele>50</ele>
        <time>2017-12-21T16:23:24Z</time>
      </trkpt>
      <trkpt lat="49.14693" lon="1.34849">
        <ele>47</ele>
        <time>2017-12-21T16:25:24Z</time>
      </trkpt>
      <trkpt lat="49.14761" lon="1.34815">
        <ele>42</ele>
        <time>2017-12-21T16:27:24Z</time>
      </trkpt>
      <trkpt lat="49.14794" lon="1.34823">
        <ele>40</ele>
        <time>2017-12-21T16:29:24Z</time>
      </trkpt>
      <trkpt lat="49.1487" lon="1.34892">
        <ele>34</ele>
        <time>2017-12-21T16:31:24Z</time>
      </trkpt>
      <trkpt lat="49.14982" lon="1.34879">
        <ele>28</ele>
        <time>2017-12-21T16:33:24Z</time>
      </trkpt>
      <trkpt lat="49.14977" lon="1.34566">
        <ele>38</ele>
        <time>2017-12-21T16:35:24Z</time>
      </trkpt>
      <trkpt lat="49.14921" lon="1.34506">
        <ele>53</ele>
        <time>2017-12-21T16:37:24Z</time>
      </trkpt>
      <trkpt lat="49.14853" lon="1.34347">
        <ele>82</ele>
        <time>2017-12-21T16:39:24Z</time>
      </trkpt>
      <trkpt lat="49.14842" lon="1.34167">
        <ele>90</ele>
        <time>2017-12-21T16:41:24Z</time>
      </trkpt>
      <trkpt lat="49.1473" lon="1.33965">
        <ele>108</ele>
        <time>2017-12-21T16:43:24Z</time>
      </trkpt>
      <trkpt lat="49.14654" lon="1.33699">
        <ele>121</ele>
        <time>2017-12-21T16:45:24Z</time>
      </trkpt>
      <trkpt lat="49.14671" lon="1.33403">
        <ele>125</ele>
        <time>2017-12-21T16:47:24Z</time>
      </trkpt>
      <trkpt lat="49.14657" lon="1.32969">
        <ele>126</ele>
        <time>2017-12-21T16:49:24Z</time>
      </trkpt>
      <trkpt lat="49.14716" lon="1.32918">
        <ele>119</ele>
        <time>2017-12-21T16:51:24Z</time>
      </trkpt>
      <trkpt lat="49.14631" lon="1.3272">
        <ele>125</ele>
        <time>2017-12-21T16:53:24Z</time>
      </trkpt>
      <trkpt lat="49.14514" lon="1.32613">
        <ele>135</ele>
        <time>2017-12-21T16:55:24Z</time>
      </trkpt>
      <trkpt lat="49.14404" lon="1.32489">
        <ele>139</ele>
        <time>2017-12-21T16:57:24Z</time>
      </trkpt>
      <trkpt lat="49.14393" lon="1.323">
        <ele>139</ele>
        <time>2017-12-21T16:59:24Z</time>
      </trkpt>
      <trkpt lat="49.14289" lon="1.32137">
        <ele>136</ele>
        <time>2017-12-21T17:01:24Z</time>
      </trkpt>
      <trkpt lat="49.14157" lon="1.32012">
        <ele>141</ele>
        <time>2017-12-21T17:03:24Z</time>
      </trkpt>
      <trkpt lat="49.14098" lon="1.31939">
        <ele>138</ele>
        <time>2017-12-21T17:05:24Z</time>
      </trkpt>
      <trkpt lat="49.14028" lon="1.31832">
        <ele>137</ele>
        <time>2017-12-21T17:07:24Z</time>
      </trkpt>
      <trkpt lat="49.13927" lon="1.31802">
        <ele>137</ele>
        <time>2017-12-21T17:09:24Z</time>
      </trkpt>
      <trkpt lat="49.13893" lon="1.3169">
        <ele>137</ele>
        <time>2017-12-21T17:11:24Z</time>
      </trkpt>
      <trkpt lat="49.13921" lon="1.31677">
        <ele>137</ele>
        <time>2017-12-21T17:13:24Z</time>
      </trkpt>
      <trkpt lat="49.1407" lon="1.31768">
        <ele>136</ele>
        <time>2017-12-21T17:15:24Z</time>
      </trkpt>
      <trkpt lat="49.14194" lon="1.31656">
        <ele>140</ele>
        <time>2017-12-21T17:17:24Z</time>
      </trkpt>
      <trkpt lat="49.1423" lon="1.31596">
        <ele>140</ele>
        <time>2017-12-21T17:19:24Z</time>
      </trkpt>
      <trkpt lat="49.14362" lon="1.31283">
        <ele>135</ele>
        <time>2017-12-21T17:21:24Z</time>
      </trkpt>
      <trkpt lat="49.14502" lon="1.31098">
        <ele>140</ele>
        <time>2017-12-21T17:23:24Z</time>
      </trkpt>
      <trkpt lat="49.14617" lon="1.30978">
        <ele>151</ele>
        <time>2017-12-21T17:25:24Z</time>
      </trkpt>
      <trkpt lat="49.14713" lon="1.30991">
        <ele>148</ele>
        <time>2017-12-21T17:27:24Z</time>
      </trkpt>
      <trkpt lat="49.14867" lon="1.30884">
        <ele>141</ele>
        <time>2017-12-21T17:29:24Z</time>
      </trkpt>
      <trkpt lat="49.14932" lon="1.30755">
        <ele>133</ele>
        <time>2017-12-21T17:31:24Z</time>
      </trkpt>
      <trkpt lat="49.14727" lon="1.30102">
        <ele>140</ele>
        <time>2017-12-21T17:33:24Z</time>
      </trkpt>
      <trkpt lat="49.14601" lon="1.30012">
        <ele>140</ele>
        <time>2017-12-21T17:35:24Z</time>
      </trkpt>
      <trkpt lat="49.143" lon="1.29875">
        <ele>139</ele>
        <time>2017-12-21T17:37:24Z</time>
      </trkpt>
      <trkpt lat="49.14306" lon="1.29785">
        <ele>139</ele>
        <time>2017-12-21T17:39:24Z</time>
      </trkpt>
      <trkpt lat="49.14348" lon="1.2966">
        <ele>139</ele>
        <time>2017-12-21T17:41:24Z</time>
      </trkpt>
      <trkpt lat="49.14421" lon="1.2936">
        <ele>142</ele>
        <time>2017-12-21T17:43:24Z</time>
      </trkpt>
      <trkpt lat="49.14662" lon="1.29313">
        <ele>145</ele>
        <time>2017-12-21T17:45:24Z</time>
      </trkpt>
      <trkpt lat="49.14758" lon="1.29257">
        <ele>144</ele>
        <time>2017-12-21T17:47:24Z</time>
      </trkpt>
      <trkpt lat="49.14887" lon="1.28961">
        <ele>143</ele>
        <time>2017-12-21T17:49:24Z</time>
      </trkpt>
      <trkpt lat="49.14845" lon="1.28759">
        <ele>148</ele>
        <time>2017-12-21T17:51:24Z</time>
      </trkpt>
      <trkpt lat="49.14836" lon="1.28643">
        <ele>152</ele>
        <time>2017-12-21T17:53:24Z</time>
      </trkpt>
      <trkpt lat="49.14864" lon="1.28545">
        <ele>150</ele>
        <time>2017-12-21T17:55:24Z</time>
      </trkpt>
      <trkpt lat="49.14845" lon="1.28115">
        <ele>150</ele>
        <time>2017-12-21T17:57:24Z</time>
      </trkpt>
      <trkpt lat="49.14724" lon="1.27549">
        <ele>155</ele>
        <time>2017-12-21T17:59:24Z</time>
      </trkpt>
      <trkpt lat="49.14937" lon="1.27326">
        <ele>160</ele>
        <time>2017-12-21T18:01:24Z</time>
      </trkpt>
      <trkpt lat="49.15022" lon="1.27429">
        <ele>158</ele>
        <time>2017-12-21T18:03:24Z</time>
      </trkpt>
      <trkpt lat="49.15058" lon="1.27493">
        <ele>156</ele>
        <time>2017-12-21T18:05:24Z</time>
      </trkpt>
      <trkpt lat="49.15148" lon="1.27386">
        <ele>153</ele>
        <time>2017-12-21T18:07:24Z</time>
      </trkpt>
      <trkpt lat="49.15193" lon="1.27111">
        <ele>148</ele>
        <time>2017-12-21T18:09:24Z</time>
      </trkpt>
      <trkpt lat="49.1526" lon="1.27">
        <ele>144</ele>
        <time>2017-12-21T18:11:24Z</time>
      </trkpt>
      <trkpt lat="49.15294" lon="1.26815">
        <ele>147</ele>
        <time>2017-12-21T18:13:24Z</time>
      </trkpt>
      <trkpt lat="49.15283" lon="1.26407">
        <ele>148</ele>
        <time>2017-12-21T18:15:24Z</time>
      </trkpt>
      <trkpt lat="49.15549" lon="1.25978">
        <ele>145</ele>
        <time>2017-12-21T18:17:24Z</time>
      </trkpt>
      <trkpt lat="49.1567" lon="1.25884">
        <ele>146</ele>
        <time>2017-12-21T18:19:24Z</time>
      </trkpt>
      <trkpt lat="49.15726" lon="1.25772">
        <ele>147</ele>
        <time>2017-12-21T18:21:24Z</time>
      </trkpt>
      <trkpt lat="49.15712" lon="1.2548">
        <ele>151</ele>
        <time>2017-12-21T18:23:24Z</time>
      </trkpt>
      <trkpt lat="49.15653" lon="1.25232">
        <ele>153</ele>
        <time>2017-12-21T18:25:24Z</time>
      </trkpt>
      <trkpt lat="49.15575" lon="1.25099">
        <ele>152</ele>
        <time>2017-12-21T18:27:24Z</time>
      </trkpt>
      <trkpt lat="49.15549" lon="1.24918">
        <ele>151</ele>
        <time>2017-12-21T18:29:24Z</time>
      </trkpt>
      <trkpt lat="49.15533" lon="1.2485">
        <ele>150</ele>
        <time>2017-12-21T18:31:24Z</time>
      </trkpt>
      <trkpt lat="49.156" lon="1.24841">
        <ele>151</ele>
        <time>2017-12-21T18:33:24Z</time>
      </trkpt>
      <trkpt lat="49.15746" lon="1.24858">
        <ele>152</ele>
        <time>2017-12-21T18:35:24Z</time>
      </trkpt>
      <trkpt lat="49.15802" lon="1.24798">
        <ele>152</ele>
        <time>2017-12-21T18:37:24Z</time>
      </trkpt>
      <trkpt lat="49.15965" lon="1.24785">
        <ele>155</ele>
        <time>2017-12-21T18:39:24Z</time>
      </trkpt>
      <trkpt lat="49.15976" lon="1.24592">
        <ele>155</ele>
        <time>2017-12-21T18:41:24Z</time>
      </trkpt>
      <trkpt lat="49.1601" lon="1.24515">
        <ele>155</ele>
        <time>2017-12-21T18:43:24Z</time>
      </trkpt>
      <trkpt lat="49.16032" lon="1.24433">
        <ele>155</ele>
        <time>2017-12-21T18:45:24Z</time>
      </trkpt>
      <trkpt lat="49.16091" lon="1.24472">
        <ele>155</ele>
        <time>2017-12-21T18:47:24Z</time>
      </trkpt>
      <trkpt lat="49.16099" lon="1.24541">
        <ele>153</ele>
        <time>2017-12-21T18:49:24Z</time>
      </trkpt>
      <trkpt lat="49.1615" lon="1.24446">
        <ele>154</ele>
        <time>2017-12-21T18:51:24Z</time>
      </trkpt>
      <trkpt lat="49.16257" lon="1.24433">
        <ele>149</ele>
        <time>2017-12-21T18:53:24Z</time>
      </trkpt>
      <trkpt lat="49.16234" lon="1.24103">
        <ele>144</ele>
        <time>2017-12-21T18:55:24Z</time>
      </trkpt>
      <trkpt lat="49.16302" lon="1.24047">
        <ele>143</ele>
        <time>2017-12-21T18:57:24Z</time>
      </trkpt>
      <trkpt lat="49.16431" lon="1.23747">
        <ele>143</ele>
        <time>2017-12-21T18:59:24Z</time>
      </trkpt>
      <trkpt lat="49.1654" lon="1.23622">
        <ele>143</ele>
        <time>2017-12-21T19:01:24Z</time>
      </trkpt>
      <trkpt lat="49.16543" lon="1.22721">
        <ele>149</ele>
        <time>2017-12-21T19:03:24Z</time>
      </trkpt>
      <trkpt lat="49.17023" lon="1.22459">
        <ele>146</ele>
        <time>2017-12-21T19:05:24Z</time>
      </trkpt>
      <trkpt lat="49.17118" lon="1.22189">
        <ele>145</ele>
        <time>2017-12-21T19:07:24Z</time>
      </trkpt>
      <trkpt lat="49.17059" lon="1.22163">
        <ele>143</ele>
        <time>2017-12-21T19:09:24Z</time>
      </trkpt>
      <trkpt lat="49.17031" lon="1.22099">
        <ele>143</ele>
        <time>2017-12-21T19:11:24Z</time>
      </trkpt>
      <trkpt lat="49.16964" lon="1.22009">
        <ele>142</ele>
        <time>2017-12-21T19:13:24Z</time>
      </trkpt>
      <trkpt lat="49.16944" lon="1.21794">
        <ele>139</ele>
        <time>2017-12-21T19:15:24Z</time>
      </trkpt>
      <trkpt lat="49.17042" lon="1.21086">
        <ele>123</ele>
        <time>2017-12-21T19:17:24Z</time>
      </trkpt>
      <trkpt lat="49.17031" lon="1.2094">
        <ele>117</ele>
        <time>2017-12-21T19:19:24Z</time>
      </trkpt>
      <trkpt lat="49.17079" lon="1.20421">
        <ele>95</ele>
        <time>2017-12-21T19:21:24Z</time>
      </trkpt>
      <trkpt lat="49.17149" lon="1.20292">
        <ele>91</ele>
        <time>2017-12-21T19:23:24Z</time>
      </trkpt>
      <trkpt lat="49.17239" lon="1.20279">
        <ele>88</ele>
        <time>2017-12-21T19:25:24Z</time>
      </trkpt>
      <trkpt lat="49.17424" lon="1.20077">
        <ele>77</ele>
        <time>2017-12-21T19:27:24Z</time>
      </trkpt>
      <trkpt lat="49.17387" lon="1.1994">
        <ele>78</ele>
        <time>2017-12-21T19:29:24Z</time>
      </trkpt>
      <trkpt lat="49.17337" lon="1.19867">
        <ele>72</ele>
        <time>2017-12-21T19:31:24Z</time>
      </trkpt>
      <trkpt lat="49.17258" lon="1.1973">
        <ele>66</ele>
        <time>2017-12-21T19:33:24Z</time>
      </trkpt>
      <trkpt lat="49.1725" lon="1.19592">
        <ele>57</ele>
        <time>2017-12-21T19:35:24Z</time>
      </trkpt>
      <trkpt lat="49.17264" lon="1.19438">
        <ele>57</ele>
        <time>2017-12-21T19:37:24Z</time>
      </trkpt>
      <trkpt lat="49.17309" lon="1.19344">
        <ele>55</ele>
        <time>2017-12-21T19:39:24Z</time>
      </trkpt>
      <trkpt lat="49.17373" lon="1.19211">
        <ele>54</ele>
        <time>2017-12-21T19:41:24Z</time>
      </trkpt>
      <trkpt lat="49.17382" lon="1.1882">
        <ele>25</ele>
        <time>2017-12-21T19:43:24Z</time>
      </trkpt>
      <trkpt lat="49.17404" lon="1.18807">
        <ele>26</ele>
        <time>2017-12-21T19:45:24Z</time>
      </trkpt>
      <trkpt lat="49.17376" lon="1.187">
        <ele>21</ele>
        <time>2017-12-21T19:47:24Z</time>
      </trkpt>
      <trkpt lat="49.173" lon="1.1861">
        <ele>22</ele>
        <time>2017-12-21T19:49:24Z</time>
      </trkpt>
      <trkpt lat="49.17261" lon="1.18318">
        <ele>20</ele>
        <time>2017-12-21T19:51:24Z</time>
      </trkpt>
      <trkpt lat="49.17303" lon="1.18039">
        <ele>20</ele>
        <time>2017-12-21T19:53:24Z</time>
      </trkpt>
      <trkpt lat="49.17272" lon="1.17803">
        <ele>20</ele>
        <time>2017-12-21T19:55:24Z</time>
      </trkpt>
      <trkpt lat="49.17199" lon="1.17537">
        <ele>21</ele>
        <time>2017-12-21T19:57:24Z</time>
      </trkpt>
      <trkpt lat="49.17098" lon="1.17271">
        <ele>33</ele>
        <time>2017-12-21T19:59:24Z</time>
      </trkpt>
      <trkpt lat="49.17042" lon="1.17005">
        <ele>48</ele>
        <time>2017-12-21T20:01:24Z</time>
      </trkpt>
      <trkpt lat="49.17194" lon="1.16932">
        <ele>42</ele>
        <time>2017-12-21T20:03:24Z</time>
      </trkpt>
      <trkpt lat="49.17354" lon="1.16932">
        <ele>33</ele>
        <time>2017-12-21T20:05:24Z</time>
      </trkpt>
      <trkpt lat="49.17867" lon="1.16945">
        <ele>17</ele>
        <time>2017-12-21T20:07:24Z</time>
      </trkpt>
      <trkpt lat="49.18007" lon="1.16777">
        <ele>25</ele>
        <time>2017-12-21T20:09:24Z</time>
      </trkpt>
      <trkpt lat="49.18414" lon="1.16747">
        <ele>22</ele>
        <time>2017-12-21T20:11:24Z</time>
      </trkpt>
      <trkpt lat="49.18431" lon="1.16631">
        <ele>29</ele>
        <time>2017-12-21T20:13:24Z</time>
      </trkpt>
      <trkpt lat="49.18423" lon="1.16558">
        <ele>29</ele>
        <time>2017-12-21T20:15:24Z</time>
      </trkpt>
      <trkpt lat="49.18465" lon="1.16361">
        <ele>34</ele>
        <time>2017-12-21T20:17:24Z</time>
      </trkpt>
      <trkpt lat="49.18403" lon="1.16271">
        <ele>34</ele>
        <time>2017-12-21T20:19:24Z</time>
      </trkpt>
      <trkpt lat="49.18425" lon="1.16065">
        <ele>44</ele>
        <time>2017-12-21T20:21:24Z</time>
      </trkpt>
      <trkpt lat="49.18417" lon="1.15958">
        <ele>42</ele>
        <time>2017-12-21T20:23:24Z</time>
      </trkpt>
      <trkpt lat="49.18327" lon="1.15829">
        <ele>49</ele>
        <time>2017-12-21T20:25:24Z</time>
      </trkpt>
      <trkpt lat="49.18176" lon="1.15777">
        <ele>54</ele>
        <time>2017-12-21T20:27:24Z</time>
      </trkpt>
      <trkpt lat="49.17951" lon="1.15717">
        <ele>53</ele>
        <time>2017-12-21T20:29:24Z</time>
      </trkpt>
      <trkpt lat="49.17817" lon="1.1561">
        <ele>55</ele>
        <time>2017-12-21T20:31:24Z</time>
      </trkpt>
      <trkpt lat="49.17721" lon="1.15408">
        <ele>61</ele>
        <time>2017-12-21T20:33:24Z</time>
      </trkpt>
      <trkpt lat="49.17707" lon="1.15018">
        <ele>65</ele>
        <time>2017-12-21T20:35:24Z</time>
      </trkpt>
      <trkpt lat="49.17617" lon="1.14837">
        <ele>67</ele>
        <time>2017-12-21T20:37:24Z</time>
      </trkpt>
      <trkpt lat="49.1762" lon="1.1425">
        <ele>91</ele>
        <time>2017-12-21T20:39:24Z</time>
      </trkpt>
      <trkpt lat="49.17603" lon="1.14142">
        <ele>93</ele>
        <time>2017-12-21T20:41:24Z</time>
      </trkpt>
      <trkpt lat="49.17606" lon="1.13812">
        <ele>106</ele>
        <time>2017-12-21T20:43:24Z</time>
      </trkpt>
      <trkpt lat="49.17772" lon="1.13494">
        <ele>120</ele>
        <time>2017-12-21T20:45:24Z</time>
      </trkpt>
      <trkpt lat="49.17957" lon="1.13464">
        <ele>134</ele>
        <time>2017-12-21T20:47:24Z</time>
      </trkpt>
      <trkpt lat="49.18111" lon="1.13353">
        <ele>131</ele>
        <time>2017-12-21T20:49:24Z</time>
      </trkpt>
      <trkpt lat="49.18215" lon="1.13258">
        <ele>135</ele>
        <time>2017-12-21T20:51:24Z</time>
      </trkpt>
      <trkpt lat="49.18369" lon="1.12988">
        <ele>136</ele>
        <time>2017-12-21T20:53:24Z</time>
      </trkpt>
      <trkpt lat="49.18493" lon="1.12692">
        <ele>137</ele>
        <time>2017-12-21T20:55:24Z</time>
      </trkpt>
      <trkpt lat="49.18737" lon="1.12928">
        <ele>137</ele>
        <time>2017-12-21T20:57:24Z</time>
      </trkpt>
      <trkpt lat="49.18779" lon="1.12984">
        <ele>132</ele>
        <time>2017-12-21T20:59:24Z</time>
      </trkpt>
      <trkpt lat="49.18784" lon="1.12786">
        <ele>137</ele>
        <time>2017-12-21T21:01:24Z</time>
      </trkpt>
      <trkpt lat="49.18829" lon="1.12597">
        <ele>138</ele>
        <time>2017-12-21T21:03:24Z</time>
      </trkpt>
      <trkpt lat="49.18939" lon="1.12383">
        <ele>137</ele>
        <time>2017-12-21T21:05:24Z</time>
      </trkpt>
      <trkpt lat="49.18998" lon="1.1216">
        <ele>140</ele>
        <time>2017-12-21T21:07:24Z</time>
      </trkpt>
      <trkpt lat="49.18998" lon="1.12052">
        <ele>139</ele>
        <time>2017-12-21T21:09:24Z</time>
      </trkpt>
      <trkpt lat="49.1902" lon="1.11928">
        <ele>140</ele>
        <time>2017-12-21T21:11:24Z</time>
      </trkpt>
      <trkpt lat="49.19127" lon="1.11752">
        <ele>141</ele>
        <time>2017-12-21T21:13:24Z</time>
      </trkpt>
      <trkpt lat="49.19166" lon="1.11524">
        <ele>141</ele>
        <time>2017-12-21T21:15:24Z</time>
      </trkpt>
      <trkpt lat="49.19233" lon="1.11606">
        <ele>146</ele>
        <time>2017-12-21T21:17:24Z</time>
      </trkpt>
      <trkpt lat="49.19348" lon="1.11988">
        <ele>141</ele>
        <time>2017-12-21T21:19:24Z</time>
      </trkpt>
      <trkpt lat="49.19547" lon="1.1237">
        <ele>143</ele>
        <time>2017-12-21T21:21:24Z</time>
      </trkpt>
      <trkpt lat="49.19741" lon="1.1243">
        <ele>133</ele>
        <time>2017-12-21T21:23:24Z</time>
      </trkpt>
      <trkpt lat="49.19752" lon="1.12378">
        <ele>133</ele>
        <time>2017-12-21T21:25:24Z</time>
      </trkpt>
      <trkpt lat="49.19976" lon="1.1246">
        <ele>135</ele>
        <time>2017-12-21T21:27:24Z</time>
      </trkpt>
      <trkpt lat="49.20145" lon="1.12842">
        <ele>132</ele>
        <time>2017-12-21T21:29:24Z</time>
      </trkpt>
      <trkpt lat="49.20369" lon="1.12769">
        <ele>135</ele>
        <time>2017-12-21T21:31:24Z</time>
      </trkpt>
      <trkpt lat="49.20433" lon="1.12769">
        <ele>133</ele>
        <time>2017-12-21T21:33:24Z</time>
      </trkpt>
      <trkpt lat="49.20529" lon="1.12722">
        <ele>133</ele>
        <time>2017-12-21T21:35:24Z</time>
      </trkpt>
      <trkpt lat="49.20599" lon="1.12606">
        <ele>130</ele>
        <time>2017-12-21T21:37:24Z</time>
      </trkpt>
      <trkpt lat="49.20717" lon="1.12464">
        <ele>139</ele>
        <time>2017-12-21T21:39:24Z</time>
      </trkpt>
      <trkpt lat="49.20764" lon="1.12014">
        <ele>143</ele>
        <time>2017-12-21T21:41:24Z</time>
      </trkpt>
      <trkpt lat="49.20952" lon="1.12069">
        <ele>135</ele>
        <time>2017-12-21T21:43:24Z</time>
      </trkpt>
      <trkpt lat="49.21294" lon="1.12254">
        <ele>137</ele>
        <time>2017-12-21T21:45:24Z</time>
      </trkpt>
      <trkpt lat="49.21286" lon="1.12134">
        <ele>137</ele>
        <time>2017-12-21T21:47:24Z</time>
      </trkpt>
      <trkpt lat="49.21328" lon="1.12036">
        <ele>143</ele>
        <time>2017-12-21T21:49:24Z</time>
      </trkpt>
      <trkpt lat="49.2135" lon="1.11743">
        <ele>143</ele>
        <time>2017-12-21T21:51:24Z</time>
      </trkpt>
      <trkpt lat="49.21446" lon="1.11065">
        <ele>148</ele>
        <time>2017-12-21T21:53:24Z</time>
      </trkpt>
      <trkpt lat="49.21429" lon="1.10984">
        <ele>148</ele>
        <time>2017-12-21T21:55:24Z</time>
      </trkpt>
      <trkpt lat="49.21577" lon="1.10894">
        <ele>152</ele>
        <time>2017-12-21T21:57:24Z</time>
      </trkpt>
      <trkpt lat="49.21678" lon="1.10919">
        <ele>153</ele>
        <time>2017-12-21T21:59:24Z</time>
      </trkpt>
      <trkpt lat="49.21762" lon="1.10928">
        <ele>149</ele>
        <time>2017-12-21T22:01:24Z</time>
      </trkpt>
      <trkpt lat="49.21874" lon="1.1107">
        <ele>141</ele>
        <time>2017-12-21T22:03:24Z</time>
      </trkpt>
      <trkpt lat="49.21919" lon="1.11242">
        <ele>139</ele>
        <time>2017-12-21T22:05:24Z</time>
      </trkpt>
      <trkpt lat="49.21988" lon="1.11362">
        <ele>139</ele>
        <time>2017-12-21T22:07:24Z</time>
      </trkpt>
      <trkpt lat="49.22031" lon="1.11505">
        <ele>143</ele>
        <time>2017-12-21T22:09:24Z</time>
      </trkpt>
      <trkpt lat="49.22083" lon="1.11584">
        <ele>143</ele>
        <time>2017-12-21T22:11:24Z</time>
      </trkpt>
      <trkpt lat="49.22121" lon="1.11679">
        <ele>141</ele>
        <time>2017-12-21T22:13:24Z</time>
      </trkpt>
      <trkpt lat="49.22181" lon="1.11754">
        <ele>139</ele>
        <time>2017-12-21T22:15:24Z</time>
      </trkpt>
      <trkpt lat="49.22211" lon="1.11845">
        <ele>141</ele>
        <time>2017-12-21T22:17:24Z</time>
      </trkpt>
      <trkpt lat="49.22236" lon="1.11942">
        <ele>141</ele>
        <time>2017-12-21T22:19:24Z</time>
      </trkpt>
      <trkpt lat="49.22311" lon="1.11928">
        <ele>142</ele>
        <time>2017-12-21T22:21:24Z</time>
      </trkpt>
      <trkpt lat="49.22379" lon="1.11769">
        <ele>134</ele>
        <time>2017-12-21T22:23:24Z</time>
      </trkpt>
      <trkpt lat="49.22436" lon="1.11724">
        <ele>130</ele>
        <time>2017-12-21T22:25:24Z</time>
      </trkpt>
      <trkpt lat="49.22562" lon="1.11553">
        <ele>112</ele>
        <time>2017-12-21T22:27:24Z</time>
      </trkpt>
      <trkpt lat="49.22638" lon="1.11523">
        <ele>95</ele>
        <time>2017-12-21T22:29:24Z</time>
      </trkpt>
      <trkpt lat="49.22669" lon="1.11587">
        <ele>89</ele>
        <time>2017-12-21T22:31:24Z</time>
      </trkpt>
      <trkpt lat="49.22673" lon="1.11786">
        <ele>84</ele>
        <time>2017-12-21T22:33:24Z</time>
      </trkpt>
      <trkpt lat="49.22716" lon="1.1197">
        <ele>85</ele>
        <time>2017-12-21T22:35:24Z</time>
      </trkpt>
      <trkpt lat="49.22717" lon="1.12127">
        <ele>87</ele>
        <time>2017-12-21T22:37:24Z</time>
      </trkpt>
      <trkpt lat="49.22808" lon="1.12323">
        <ele>76</ele>
        <time>2017-12-21T22:39:24Z</time>
      </trkpt>
      <trkpt lat="49.22901" lon="1.12372">
        <ele>75</ele>
        <time>2017-12-21T22:41:24Z</time>
      </trkpt>
      <trkpt lat="49.22948" lon="1.12503">
        <ele>73</ele>
        <time>2017-12-21T22:43:24Z</time>
      </trkpt>
      <trkpt lat="49.22958" lon="1.12614">
        <ele>70</ele>
        <time>2017-12-21T22:45:24Z</time>
      </trkpt>
      <trkpt lat="49.22965" lon="1.12728">
        <ele>71</ele>
        <time>2017-12-21T22:47:24Z</time>
      </trkpt>
      <trkpt lat="49.22974" lon="1.12882">
        <ele>77</ele>
        <time>2017-12-21T22:49:24Z</time>
      </trkpt>
      <trkpt lat="49.2302" lon="1.13031">
        <ele>74</ele>
        <time>2017-12-21T22:51:24Z</time>
      </trkpt>
      <trkpt lat="49.23075" lon="1.13072">
        <ele>69</ele>
        <time>2017-12-21T22:53:24Z</time>
      </trkpt>
      <trkpt lat="49.2312" lon="1.13101">
        <ele>69</ele>
        <time>2017-12-21T22:55:24Z</time>
      </trkpt>
      <trkpt lat="49.23253" lon="1.13123">
        <ele>72</ele>
        <time>2017-12-21T22:57:24Z</time>
      </trkpt>
      <trkpt lat="49.23675" lon="1.13303">
        <ele>121</ele>
        <time>2017-12-21T22:59:24Z</time>
      </trkpt>
      <trkpt lat="49.23744" lon="1.12945">
        <ele>122</ele>
        <time>2017-12-21T23:01:24Z</time>
      </trkpt>
      <trkpt lat="49.2373" lon="1.12692">
        <ele>124</ele>
        <time>2017-12-21T23:03:24Z</time>
      </trkpt>
      <trkpt lat="49.24845" lon="1.13207">
        <ele>85</ele>
        <time>2017-12-21T23:05:24Z</time>
      </trkpt>
      <trkpt lat="49.24842" lon="1.13318">
        <ele>82</ele>
        <time>2017-12-21T23:07:24Z</time>
      </trkpt>
      <trkpt lat="49.24856" lon="1.13413">
        <ele>84</ele>
        <time>2017-12-21T23:09:24Z</time>
      </trkpt>
      <trkpt lat="49.24884" lon="1.13516">
        <ele>82</ele>
        <time>2017-12-21T23:11:24Z</time>
      </trkpt>
      <trkpt lat="49.24954" lon="1.13687">
        <ele>77</ele>
        <time>2017-12-21T23:13:24Z</time>
      </trkpt>
      <trkpt lat="49.24906" lon="1.13786">
        <ele>79</ele>
        <time>2017-12-21T23:15:24Z</time>
      </trkpt>
      <trkpt lat="49.2485" lon="1.1385">
        <ele>76</ele>
        <time>2017-12-21T23:17:24Z</time>
      </trkpt>
      <trkpt lat="49.2501" lon="1.13915">
        <ele>70</ele>
        <time>2017-12-21T23:19:24Z</time>
      </trkpt>
      <trkpt lat="49.25041" lon="1.13859">
        <ele>74</ele>
        <time>2017-12-21T23:21:24Z</time>
      </trkpt>
      <trkpt lat="49.25049" lon="1.13726">
        <ele>81</ele>
        <time>2017-12-21T23:23:24Z</time>
      </trkpt>
      <trkpt lat="49.24965" lon="1.13571">
        <ele>81</ele>
        <time>2017-12-21T23:25:24Z</time>
      </trkpt>
      <trkpt lat="49.24901" lon="1.13387">
        <ele>84</ele>
        <time>2017-12-21T23:27:24Z</time>
      </trkpt>
      <trkpt lat="49.24895" lon="1.13211">
        <ele>82</ele>
        <time>2017-12-21T23:29:24Z</time>
      </trkpt>
      <trkpt lat="49.25041" lon="1.12958">
        <ele>93</ele>
        <time>2017-12-21T23:31:24Z</time>
      </trkpt>
      <trkpt lat="49.25047" lon="1.12593">
        <ele>100</ele>
        <time>2017-12-21T23:33:24Z</time>
      </trkpt>
      <trkpt lat="49.24982" lon="1.12374">
        <ele>95</ele>
        <time>2017-12-21T23:35:24Z</time>
      </trkpt>
      <trkpt lat="49.24991" lon="1.12271">
        <ele>91</ele>
        <time>2017-12-21T23:37:24Z</time>
      </trkpt>
      <trkpt lat="49.25069" lon="1.1216">
        <ele>88</ele>
        <time>2017-12-21T23:39:24Z</time>
      </trkpt>
      <trkpt lat="49.25203" lon="1.12065">
        <ele>91</ele>
        <time>2017-12-21T23:41:24Z</time>
      </trkpt>
      <trkpt lat="49.25313" lon="1.11958">
        <ele>97</ele>
        <time>2017-12-21T23:43:24Z</time>
      </trkpt>
      <trkpt lat="49.25503" lon="1.11932">
        <ele>103</ele>
        <time>2017-12-21T23:45:24Z</time>
      </trkpt>
      <trkpt lat="49.25556" lon="1.11829">
        <ele>104</ele>
        <time>2017-12-21T23:47:24Z</time>
      </trkpt>
      <trkpt lat="49.25587" lon="1.11589">
        <ele>109</ele>
        <time>2017-12-21T23:49:24Z</time>
      </trkpt>
      <trkpt lat="49.2573" lon="1.11374">
        <ele>112</ele>
        <time>2017-12-21T23:51:24Z</time>
      </trkpt>
      <trkpt lat="49.25789" lon="1.11168">
        <ele>115</ele>
        <time>2017-12-21T23:53:24Z</time>
      </trkpt>
      <trkpt lat="49.25901" lon="1.11095">
        <ele>120</ele>
        <time>2017-12-21T23:55:24Z</time>
      </trkpt>
      <trkpt lat="49.25948" lon="1.11121">
        <ele>122</ele>
        <time>2017-12-21T23:57:24Z</time>
      </trkpt>
      <trkpt lat="49.2599" lon="1.11108">
        <ele>122</ele>
        <time>2017-12-21T23:59:24Z</time>
      </trkpt>
      <trkpt lat="49.26013" lon="1.11134">
        <ele>122</ele>
        <time>2017-12-22T00:01:24Z</time>
      </trkpt>
      <trkpt lat="49.26019" lon="1.1119">
        <ele>121</ele>
        <time>2017-12-22T00:03:24Z</time>
      </trkpt>
      <trkpt lat="49.26061" lon="1.11198">
        <ele>121</ele>
        <time>2017-12-22T00:05:24Z</time>
      </trkpt>
      <trkpt lat="49.26089" lon="1.1122">
        <ele>120</ele>
        <time>2017-12-22T00:07:24Z</time>
      </trkpt>
      <trkpt lat="49.26175" lon="1.10979">
        <ele>126</ele>
        <time>2017-12-22T00:09:24Z</time>
      </trkpt>
      <trkpt lat="49.26189" lon="1.10906">
        <ele>127</ele>
        <time>2017-12-22T00:11:24Z</time>
      </trkpt>
      <trkpt lat="49.26514" lon="1.10434">
        <ele>127</ele>
        <time>2017-12-22T00:13:24Z</time>
      </trkpt>
      <trkpt lat="49.26531" lon="1.10383">
        <ele>127</ele>
        <time>2017-12-22T00:15:24Z</time>
      </trkpt>
      <trkpt lat="49.26559" lon="1.10297">
        <ele>127</ele>
        <time>2017-12-22T00:17:24Z</time>
      </trkpt>
      <trkpt lat="49.2659" lon="1.10241">
        <ele>128</ele>
        <time>2017-12-22T00:19:24Z</time>
      </trkpt>
      <trkpt lat="49.26601" lon="1.10065">
        <ele>128</ele>
        <time>2017-12-22T00:21:24Z</time>
      </trkpt>
      <trkpt lat="49.26618" lon="1.09898">
        <ele>126</ele>
        <time>2017-12-22T00:23:24Z</time>
      </trkpt>
      <trkpt lat="49.26632" lon="1.0967">
        <ele>125</ele>
        <time>2017-12-22T00:25:24Z</time>
      </trkpt>
      <trkpt lat="49.26665" lon="1.09585">
        <ele>124</ele>
        <time>2017-12-22T00:27:24Z</time>
      </trkpt>
      <trkpt lat="49.26691" lon="1.09503">
        <ele>123</ele>
        <time>2017-12-22T00:29:24Z</time>
      </trkpt>
      <trkpt lat="49.26741" lon="1.0946">
        <ele>123</ele>
        <time>2017-12-22T00:31:24Z</time>
      </trkpt>
      <trkpt lat="49.26783" lon="1.094">
        <ele>121</ele>
        <time>2017-12-22T00:33:24Z</time>
      </trkpt>
      <trkpt lat="49.26842" lon="1.0937">
        <ele>120</ele>
        <time>2017-12-22T00:35:24Z</time>
      </trkpt>
      <trkpt lat="49.26934" lon="1.09319">
        <ele>115</ele>
        <time>2017-12-22T00:37:24Z</time>
      </trkpt>
      <trkpt lat="49.26971" lon="1.09284">
        <ele>109</ele>
        <time>2017-12-22T00:39:24Z</time>
      </trkpt>
      <trkpt lat="49.27083" lon="1.09258">
        <ele>104</ele>
        <time>2017-12-22T00:41:24Z</time>
      </trkpt>
      <trkpt lat="49.27237" lon="1.091">
        <ele>88</ele>
        <time>2017-12-22T00:43:24Z</time>
      </trkpt>
      <trkpt lat="49.27301" lon="1.08988">
        <ele>81</ele>
        <time>2017-12-22T00:45:24Z</time>
      </trkpt>
      <trkpt lat="49.27309" lon="1.08902">
        <ele>74</ele>
        <time>2017-12-22T00:47:24Z</time>
      </trkpt>
      <trkpt lat="49.27315" lon="1.08786">
        <ele>65</ele>
        <time>2017-12-22T00:49:24Z</time>
      </trkpt>
      <trkpt lat="49.2734" lon="1.08756">
        <ele>62</ele>
        <time>2017-12-22T00:51:24Z</time>
      </trkpt>
      <trkpt lat="49.27368" lon="1.08662">
        <ele>61</ele>
        <time>2017-12-22T00:53:24Z</time>
      </trkpt>
      <trkpt lat="49.27449" lon="1.08546">
        <ele>57</ele>
        <time>2017-12-22T00:55:24Z</time>
      </trkpt>
      <trkpt lat="49.27511" lon="1.08186">
        <ele>52</ele>
        <time>2017-12-22T00:57:24Z</time>
      </trkpt>
      <trkpt lat="49.2727" lon="1.07842">
        <ele>55</ele>
        <time>2017-12-22T00:59:24Z</time>
      </trkpt>
      <trkpt lat="49.27248" lon="1.07877">
        <ele>56</ele>
        <time>2017-12-22T01:01:24Z</time>
      </trkpt>
      <trkpt lat="49.27225" lon="1.07795">
        <ele>55</ele>
        <time>2017-12-22T01:03:24Z</time>
      </trkpt>
      <trkpt lat="49.2715" lon="1.07709">
        <ele>56</ele>
        <time>2017-12-22T01:05:24Z</time>
      </trkpt>
      <trkpt lat="49.27125" lon="1.07632">
        <ele>54</ele>
        <time>2017-12-22T01:07:24Z</time>
      </trkpt>
      <trkpt lat="49.27055" lon="1.0758">
        <ele>55</ele>
        <time>2017-12-22T01:09:24Z</time>
      </trkpt>
      <trkpt lat="49.27035" lon="1.07538">
        <ele>54</ele>
        <time>2017-12-22T01:11:24Z</time>
      </trkpt>
      <trkpt lat="49.2699" lon="1.07486">
        <ele>53</ele>
        <time>2017-12-22T01:13:24Z</time>
      </trkpt>
      <trkpt lat="49.26959" lon="1.07396">
        <ele>54</ele>
        <time>2017-12-22T01:15:24Z</time>
      </trkpt>
      <trkpt lat="49.26555" lon="1.0684">
        <ele>62</ele>
        <time>2017-12-22T01:17:24Z</time>
      </trkpt>
      <trkpt lat="49.26299" lon="1.06493">
        <ele>75</ele>
        <time>2017-12-22T01:19:24Z</time>
      </trkpt>
      <trkpt lat="49.26411" lon="1.06218">
        <ele>67</ele>
        <time>2017-12-22T01:21:24Z</time>
      </trkpt>
      <trkpt lat="49.26534" lon="1.06021">
        <ele>61</ele>
        <time>2017-12-22T01:23:24Z</time>
      </trkpt>
      <trkpt lat="49.26572" lon="1.05982">
        <ele>58</ele>
        <time>2017-12-22T01:25:24Z</time>
      </trkpt>
      <trkpt lat="49.26615" lon="1.05903">
        <ele>55</ele>
        <time>2017-12-22T01:27:24Z</time>
      </trkpt>
      <trkpt lat="49.26672" lon="1.05842">
        <ele>47</ele>
        <time>2017-12-22T01:29:24Z</time>
      </trkpt>
      <trkpt lat="49.26745" lon="1.05737">
        <ele>40</ele>
        <time>2017-12-22T01:31:24Z</time>
      </trkpt>
      <trkpt lat="49.26793" lon="1.05454">
        <ele>36</ele>
        <time>2017-12-22T01:33:24Z</time>
      </trkpt>
      <trkpt lat="49.26791" lon="1.05396">
        <ele>36</ele>
        <time>2017-12-22T01:35:24Z</time>
      </trkpt>
      <trkpt lat="49.26719" lon="1.05445">
        <ele>37</ele>
        <time>2017-12-22T01:37:24Z</time>
      </trkpt>
      <trkpt lat="49.26668" lon="1.05445">
        <ele>37</ele>
        <time>2017-12-22T01:39:24Z</time>
      </trkpt>
      <trkpt lat="49.26678" lon="1.05304">
        <ele>37</ele>
        <time>2017-12-22T01:41:24Z</time>
      </trkpt>
      <trkpt lat="49.265" lon="1.05274">
        <ele>35</ele>
        <time>2017-12-22T01:43:24Z</time>
      </trkpt>
      <trkpt lat="49.26502" lon="1.05231">
        <ele>37</ele>
        <time>2017-12-22T01:45:24Z</time>
      </trkpt>
      <trkpt lat="49.26534" lon="1.05143">
        <ele>41</ele>
        <time>2017-12-22T01:47:24Z</time>
      </trkpt>
      <trkpt lat="49.26497" lon="1.05156">
        <ele>42</ele>
        <time>2017-12-22T01:49:24Z</time>
      </trkpt>
      <trkpt lat="49.26312" lon="1.05194">
        <ele>48</ele>
        <time>2017-12-22T01:51:24Z</time>
      </trkpt>
      <trkpt lat="49.26237" lon="1.05158">
        <ele>52</ele>
        <time>2017-12-22T01:53:24Z</time>
      </trkpt>
      <trkpt lat="49.26084" lon="1.05035">
        <ele>67</ele>
        <time>2017-12-22T01:55:24Z</time>
      </trkpt>
      <trkpt lat="49.26166" lon="1.04997">
        <ele>65</ele>
        <time>2017-12-22T01:57:24Z</time>
      </trkpt>
      <trkpt lat="49.26171" lon="1.04973">
        <ele>66</ele>
        <time>2017-12-22T01:59:24Z</time>
      </trkpt>
      <trkpt lat="49.26142" lon="1.04928">
        <ele>72</ele>
        <time>2017-12-22T02:01:24Z</time>
      </trkpt>
      <trkpt lat="49.25506" lon="1.04474">
        <ele>120</ele>
        <time>2017-12-22T02:03:24Z</time>
      </trkpt>
      <trkpt lat="49.25554" lon="1.04359">
        <ele>119</ele>
        <time>2017-12-22T02:05:24Z</time>
      </trkpt>
      <trkpt lat="49.25595" lon="1.04302">
        <ele>118</ele>
        <time>2017-12-22T02:07:24Z</time>
      </trkpt>
      <trkpt lat="49.25529" lon="1.04194">
        <ele>115</ele>
        <time>2017-12-22T02:09:24Z</time>
      </trkpt>
      <trkpt lat="49.25484" lon="1.04121">
        <ele>116</ele>
        <time>2017-12-22T02:11:24Z</time>
      </trkpt>
      <trkpt lat="49.25271" lon="1.03774">
        <ele>121</ele>
        <time>2017-12-22T02:13:24Z</time>
      </trkpt>
      <trkpt lat="49.25173" lon="1.03803">
        <ele>123</ele>
        <time>2017-12-22T02:15:24Z</time>
      </trkpt>
      <trkpt lat="49.25092" lon="1.03791">
        <ele>121</ele>
        <time>2017-12-22T02:17:24Z</time>
      </trkpt>
      <trkpt lat="49.25024" lon="1.03782">
        <ele>120</ele>
        <time>2017-12-22T02:19:24Z</time>
      </trkpt>
      <trkpt lat="49.24934" lon="1.03654">
        <ele>117</ele>
        <time>2017-12-22T02:21:24Z</time>
      </trkpt>
      <trkpt lat="49.24906" lon="1.03534">
        <ele>119</ele>
        <time>2017-12-22T02:23:24Z</time>
      </trkpt>
      <trkpt lat="49.24845" lon="1.03409">
        <ele>123</ele>
        <time>2017-12-22T02:25:24Z</time>
      </trkpt>
      <trkpt lat="49.24767" lon="1.03238">
        <ele>129</ele>
        <time>2017-12-22T02:27:24Z</time>
      </trkpt>
      <trkpt lat="49.2466" lon="1.03259">
        <ele>131</ele>
        <time>2017-12-22T02:29:24Z</time>
      </trkpt>
      <trkpt lat="49.24514" lon="1.03233">
        <ele>132</ele>
        <time>2017-12-22T02:31:24Z</time>
      </trkpt>
      <trkpt lat="49.24486" lon="1.03121">
        <ele>124</ele>
        <time>2017-12-22T02:33:24Z</time>
      </trkpt>
      <trkpt lat="49.24444" lon="1.03019">
        <ele>110</ele>
        <time>2017-12-22T02:35:24Z</time>
      </trkpt>
      <trkpt lat="49.24441" lon="1.02765">
        <ele>80</ele>
        <time>2017-12-22T02:37:24Z</time>
      </trkpt>
      <trkpt lat="49.24511" lon="1.02877">
        <ele>80</ele>
        <time>2017-12-22T02:39:24Z</time>
      </trkpt>
      <trkpt lat="49.24579" lon="1.02924">
        <ele>75</ele>
        <time>2017-12-22T02:41:24Z</time>
      </trkpt>
      <trkpt lat="49.24643" lon="1.02894">
        <ele>74</ele>
        <time>2017-12-22T02:43:24Z</time>
      </trkpt>
      <trkpt lat="49.24685" lon="1.028">
        <ele>71</ele>
        <time>2017-12-22T02:45:24Z</time>
      </trkpt>
      <trkpt lat="49.24766" lon="1.02671">
        <ele>64</ele>
        <time>2017-12-22T02:47:24Z</time>
      </trkpt>
      <trkpt lat="49.24806" lon="1.02615">
        <ele>62</ele>
        <time>2017-12-22T02:49:24Z</time>
      </trkpt>
      <trkpt lat="49.24862" lon="1.02591">
        <ele>60</ele>
        <time>2017-12-22T02:51:24Z</time>
      </trkpt>
      <trkpt lat="49.24881" lon="1.02584">
        <ele>61</ele>
        <time>2017-12-22T02:53:24Z</time>
      </trkpt>
      <trkpt lat="49.24929" lon="1.0254">
        <ele>63</ele>
        <time>2017-12-22T02:55:24Z</time>
      </trkpt>
      <trkpt lat="49.24973" lon="1.02469">
        <ele>67</ele>
        <time>2017-12-22T02:57:24Z</time>
      </trkpt>
      <trkpt lat="49.2498" lon="1.02393">
        <ele>64</ele>
        <time>2017-12-22T02:59:24Z</time>
      </trkpt>
      <trkpt lat="49.24972" lon="1.02284">
        <ele>60</ele>
        <time>2017-12-22T03:01:24Z</time>
      </trkpt>
      <trkpt lat="49.2498" lon="1.02233">
        <ele>58</ele>
        <time>2017-12-22T03:03:24Z</time>
      </trkpt>
      <trkpt lat="49.24993" lon="1.02201">
        <ele>56</ele>
        <time>2017-12-22T03:05:24Z</time>
      </trkpt>
      <trkpt lat="49.25002" lon="1.02188">
        <ele>55</ele>
        <time>2017-12-22T03:07:24Z</time>
      </trkpt>
      <trkpt lat="49.25096" lon="1.02111">
        <ele>56</ele>
        <time>2017-12-22T03:09:24Z</time>
      </trkpt>
      <trkpt lat="49.25221" lon="1.0193">
        <ele>51</ele>
        <time>2017-12-22T03:11:24Z</time>
      </trkpt>
      <trkpt lat="49.25245" lon="1.01915">
        <ele>50</ele>
        <time>2017-12-22T03:13:24Z</time>
      </trkpt>
      <trkpt lat="49.25273" lon="1.01909">
        <ele>50</ele>
        <time>2017-12-22T03:15:24Z</time>
      </trkpt>
      <trkpt lat="49.25313" lon="1.01823">
        <ele>50</ele>
        <time>2017-12-22T03:17:24Z</time>
      </trkpt>
      <trkpt lat="49.25327" lon="1.01813">
        <ele>51</ele>
        <time>2017-12-22T03:19:24Z</time>
      </trkpt>
      <trkpt lat="49.25326" lon="1.01772">
        <ele>53</ele>
        <time>2017-12-22T03:21:24Z</time>
      </trkpt>
      <trkpt lat="49.25308" lon="1.01747">
        <ele>54</ele>
        <time>2017-12-22T03:23:24Z</time>
      </trkpt>
      <trkpt lat="49.25313" lon="1.01611">
        <ele>65</ele>
        <time>2017-12-22T03:25:24Z</time>
      </trkpt>
      <trkpt lat="49.25311" lon="1.01586">
        <ele>67</ele>
        <time>2017-12-22T03:27:24Z</time>
      </trkpt>
      <trkpt lat="49.2532" lon="1.0157">
        <ele>67</ele>
        <time>2017-12-22T03:29:24Z</time>
      </trkpt>
      <trkpt lat="49.25342" lon="1.01551">
        <ele>70</ele>
        <time>2017-12-22T03:31:24Z</time>
      </trkpt>
      <trkpt lat="49.25357" lon="1.01519">
        <ele>74</ele>
        <time>2017-12-22T03:33:24Z</time>
      </trkpt>
      <trkpt lat="49.25362" lon="1.01574">
        <ele>76</ele>
        <time>2017-12-22T03:35:24Z</time>
      </trkpt>
      <trkpt lat="49.25389" lon="1.0159">
        <ele>83</ele>
        <time>2017-12-22T03:37:24Z</time>
      </trkpt>
      <trkpt lat="49.25459" lon="1.01614">
        <ele>98</ele>
        <time>2017-12-22T03:39:24Z</time>
      </trkpt>
      <trkpt lat="49.25517" lon="1.01666">
        <ele>106</ele>
        <time>2017-12-22T03:41:24Z</time>
      </trkpt>
      <trkpt lat="49.25557" lon="1.01695">
        <ele>107</ele>
        <time>2017-12-22T03:43:24Z</time>
      </trkpt>
      <trkpt lat="49.25582" lon="1.01725">
        <ele>109</ele>
        <time>2017-12-22T03:45:24Z</time>
      </trkpt>
      <trkpt lat="49.25625" lon="1.01734">
        <ele>110</ele>
        <time>2017-12-22T03:47:24Z</time>
      </trkpt>
      <trkpt lat="49.25647" lon="1.01745">
        <ele>110</ele>
        <time>2017-12-22T03:49:24Z</time>
      </trkpt>
      <trkpt lat="49.25678" lon="1.01752">
        <ele>110</ele>
        <time>2017-12-22T03:51:24Z</time>
      </trkpt>
      <trkpt lat="49.25696" lon="1.01749">
        <ele>110</ele>
        <time>2017-12-22T03:53:24Z</time>
      </trkpt>
      <trkpt lat="49.258" lon="1.0162">
        <ele>115</ele>
        <time>2017-12-22T03:55:24Z</time>
      </trkpt>
      <trkpt lat="49.25799" lon="1.01602">
        <ele>117</ele>
        <time>2017-12-22T03:57:24Z</time>
      </trkpt>
      <trkpt lat="49.25811" lon="1.01556">
        <ele>119</ele>
        <time>2017-12-22T03:59:24Z</time>
      </trkpt>
      <trkpt lat="49.25826" lon="1.01513">
        <ele>121</ele>
        <time>2017-12-22T04:01:24Z</time>
      </trkpt>
      <trkpt lat="49.25848" lon="1.01468">
        <ele>123</ele>
        <time>2017-12-22T04:03:24Z</time>
      </trkpt>
      <trkpt lat="49.25882" lon="1.01373">
        <ele>128</ele>
        <time>2017-12-22T04:05:24Z</time>
      </trkpt>
      <trkpt lat="49.25918" lon="1.01349">
        <ele>130</ele>
        <time>2017-12-22T04:07:24Z</time>
      </trkpt>
      <trkpt lat="49.25958" lon="1.01315">
        <ele>131</ele>
        <time>2017-12-22T04:09:24Z</time>
      </trkpt>
      <trkpt lat="49.25993" lon="1.01272">
        <ele>132</ele>
        <time>2017-12-22T04:11:24Z</time>
      </trkpt>
      <trkpt lat="49.26035" lon="1.01263">
        <ele>132</ele>
        <time>2017-12-22T04:13:24Z</time>
      </trkpt>
      <trkpt lat="49.26201" lon="1.0119">
        <ele>133</ele>
        <time>2017-12-22T04:15:24Z</time>
      </trkpt>
      <trkpt lat="49.26279" lon="1.01195">
        <ele>134</ele>
        <time>2017-12-22T04:17:24Z</time>
      </trkpt>
      <trkpt lat="49.26357" lon="1.01139">
        <ele>136</ele>
        <time>2017-12-22T04:19:24Z</time>
      </trkpt>
      <trkpt lat="49.26402" lon="1.01092">
        <ele>136</ele>
        <time>2017-12-22T04:21:24Z</time>
      </trkpt>
      <trkpt lat="49.26411" lon="1.01057">
        <ele>136</ele>
        <time>2017-12-22T04:23:24Z</time>
      </trkpt>
      <trkpt lat="49.26461" lon="1.01057">
        <ele>135</ele>
        <time>2017-12-22T04:25:24Z</time>
      </trkpt>
      <trkpt lat="49.26497" lon="1.01014">
        <ele>135</ele>
        <time>2017-12-22T04:27:24Z</time>
      </trkpt>
      <trkpt lat="49.26581" lon="1.00993">
        <ele>135</ele>
        <time>2017-12-22T04:29:24Z</time>
      </trkpt>
      <trkpt lat="49.26657" lon="1.00916">
        <ele>131</ele>
        <time>2017-12-22T04:31:24Z</time>
      </trkpt>
      <trkpt lat="49.27046" lon="1.00233">
        <ele>129</ele>
        <time>2017-12-22T04:33:24Z</time>
      </trkpt>
      <trkpt lat="49.27108" lon="1.00255">
        <ele>129</ele>
        <time>2017-12-22T04:35:24Z</time>
      </trkpt>
      <trkpt lat="49.2722" lon="1.00148">
        <ele>121</ele>
        <time>2017-12-22T04:37:24Z</time>
      </trkpt>
      <trkpt lat="49.27262" lon="1.001">
        <ele>113</ele>
        <time>2017-12-22T04:39:24Z</time>
      </trkpt>
      <trkpt lat="49.27399" lon="1.00152">
        <ele>101</ele>
        <time>2017-12-22T04:41:24Z</time>
      </trkpt>
      <trkpt lat="49.27458" lon="1.00148">
        <ele>84</ele>
        <time>2017-12-22T04:43:24Z</time>
      </trkpt>
      <trkpt lat="49.27511" lon="1.00248">
        <ele>67</ele>
        <time>2017-12-22T04:45:24Z</time>
      </trkpt>
      <trkpt lat="49.2757" lon="1.0033">
        <ele>55</ele>
        <time>2017-12-22T04:47:24Z</time>
      </trkpt>
      <trkpt lat="49.27578" lon="1.00221">
        <ele>49</ele>
        <time>2017-12-22T04:49:24Z</time>
      </trkpt>
      <trkpt lat="49.27612" lon="1.00347">
        <ele>49</ele>
        <time>2017-12-22T04:51:24Z</time>
      </trkpt>
      <trkpt lat="49.27668" lon="1.00293">
        <ele>44</ele>
        <time>2017-12-22T04:53:24Z</time>
      </trkpt>
      <trkpt lat="49.27735" lon="1.00487">
        <ele>45</ele>
        <time>2017-12-22T04:55:24Z</time>
      </trkpt>
      <trkpt lat="49.27731" lon="1.00512">
        <ele>44</ele>
        <time>2017-12-22T04:57:24Z</time>
      </trkpt>
      <trkpt lat="49.27745" lon="1.00523">
        <ele>44</ele>
        <time>2017-12-22T04:59:24Z</time>
      </trkpt>
      <trkpt lat="49.27757" lon="1.00504">
        <ele>45</ele>
        <time>2017-12-22T05:01:24Z</time>
      </trkpt>
      <trkpt lat="49.27897" lon="1.00705">
        <ele>42</ele>
        <time>2017-12-22T05:03:24Z</time>
      </trkpt>
      <trkpt lat="49.2793" lon="1.00753">
        <ele>38</ele>
        <time>2017-12-22T05:05:24Z</time>
      </trkpt>
      <trkpt lat="49.27948" lon="1.00733">
        <ele>39</ele>
        <time>2017-12-22T05:07:24Z</time>
      </trkpt>
      <trkpt lat="49.27917" lon="1.00697">
        <ele>43</ele>
        <time>2017-12-22T05:09:24Z</time>
      </trkpt>
      <trkpt lat="49.27839" lon="1.00499">
        <ele>61</ele>
        <time>2017-12-22T05:11:24Z</time>
      </trkpt>
      <trkpt lat="49.27861" lon="1.00478">
        <ele>69</ele>
        <time>2017-12-22T05:13:24Z</time>
      </trkpt>
      <trkpt lat="49.2782" lon="1.00223">
        <ele>94</ele>
        <time>2017-12-22T05:15:24Z</time>
      </trkpt>
      <trkpt lat="49.28085" lon="0.99594">
        <ele>124</ele>
        <time>2017-12-22T05:17:24Z</time>
      </trkpt>
      <trkpt lat="49.28127" lon="0.99609">
        <ele>122</ele>
        <time>2017-12-22T05:19:24Z</time>
      </trkpt>
      <trkpt lat="49.28287" lon="0.99695">
        <ele>115</ele>
        <time>2017-12-22T05:21:24Z</time>
      </trkpt>
      <trkpt lat="49.28355" lon="0.99716">
        <ele>109</ele>
        <time>2017-12-22T05:23:24Z</time>
      </trkpt>
      <trkpt lat="49.28421" lon="0.99751">
        <ele>102</ele>
        <time>2017-12-22T05:25:24Z</time>
      </trkpt>
      <trkpt lat="49.28459" lon="0.99753">
        <ele>91</ele>
        <time>2017-12-22T05:27:24Z</time>
      </trkpt>
      <trkpt lat="49.28531" lon="0.99757">
        <ele>74</ele>
        <time>2017-12-22T05:29:24Z</time>
      </trkpt>
      <trkpt lat="49.28573" lon="0.99739">
        <ele>65</ele>
        <time>2017-12-22T05:31:24Z</time>
      </trkpt>
      <trkpt lat="49.28606" lon="0.99748">
        <ele>61</ele>
        <time>2017-12-22T05:33:24Z</time>
      </trkpt>
      <trkpt lat="49.28627" lon="0.99776">
        <ele>58</ele>
        <time>2017-12-22T05:35:24Z</time>
      </trkpt>
      <trkpt lat="49.28631" lon="0.99798">
        <ele>56</ele>
        <time>2017-12-22T05:37:24Z</time>
      </trkpt>
      <trkpt lat="49.28622" lon="0.99822">
        <ele>57</ele>
        <time>2017-12-22T05:39:24Z</time>
      </trkpt>
      <trkpt lat="49.28592" lon="0.99856">
        <ele>58</ele>
        <time>2017-12-22T05:41:24Z</time>
      </trkpt>
      <trkpt lat="49.28592" lon="0.99884">
        <ele>54</ele>
        <time>2017-12-22T05:43:24Z</time>
      </trkpt>
      <trkpt lat="49.28737" lon="1.00061">
        <ele>24</ele>
        <time>2017-12-22T05:45:24Z</time>
      </trkpt>
      <trkpt lat="49.28881" lon="1.00201">
        <ele>16</ele>
        <time>2017-12-22T05:47:24Z</time>
      </trkpt>
      <trkpt lat="49.28947" lon="1.00272">
        <ele>14</ele>
        <time>2017-12-22T05:49:24Z</time>
      </trkpt>
      <trkpt lat="49.29006" lon="1.00285">
        <ele>14</ele>
        <time>2017-12-22T05:51:24Z</time>
      </trkpt>
      <trkpt lat="49.29076" lon="0.99979">
        <ele>14</ele>
        <time>2017-12-22T05:53:24Z</time>
      </trkpt>
      <trkpt lat="49.29124" lon="0.99851">
        <ele>19</ele>
        <time>2017-12-22T05:55:24Z</time>
      </trkpt>
      <trkpt lat="49.29171" lon="0.99787">
        <ele>21</ele>
        <time>2017-12-22T05:57:24Z</time>
      </trkpt>
      <trkpt lat="49.2923" lon="0.99736">
        <ele>21</ele>
        <time>2017-12-22T05:59:24Z</time>
      </trkpt>
      <trkpt lat="49.29163" lon="0.99577">
        <ele>42</ele>
        <time>2017-12-22T06:01:24Z</time>
      </trkpt>
      <trkpt lat="49.29048" lon="0.99603">
        <ele>48</ele>
        <time>2017-12-22T06:03:24Z</time>
      </trkpt>
      <trkpt lat="49.29037" lon="0.99521">
        <ele>55</ele>
        <time>2017-12-22T06:05:24Z</time>
      </trkpt>
      <trkpt lat="49.29182" lon="0.99302">
        <ele>87</ele>
        <time>2017-12-22T06:07:24Z</time>
      </trkpt>
      <trkpt lat="49.29266" lon="0.99015">
        <ele>120</ele>
        <time>2017-12-22T06:09:24Z</time>
      </trkpt>
      <trkpt lat="49.29333" lon="0.98924">
        <ele>124</ele>
        <time>2017-12-22T06:11:24Z</time>
      </trkpt>
      <trkpt lat="49.29499" lon="0.98509">
        <ele>126</ele>
        <time>2017-12-22T06:13:24Z</time>
      </trkpt>
      <trkpt lat="49.29576" lon="0.98399">
        <ele>128</ele>
        <time>2017-12-22T06:15:24Z</time>
      </trkpt>
      <trkpt lat="49.2958" lon="0.98358">
        <ele>127</ele>
        <time>2017-12-22T06:17:24Z</time>
      </trkpt>
      <trkpt lat="49.29697" lon="0.9824">
        <ele>129</ele>
        <time>2017-12-22T06:19:24Z</time>
      </trkpt>
      <trkpt lat="49.29726" lon="0.98209">
        <ele>128</ele>
        <time>2017-12-22T06:21:24Z</time>
      </trkpt>
      <trkpt lat="49.29779" lon="0.98069">
        <ele>130</ele>
        <time>2017-12-22T06:23:24Z</time>
      </trkpt>
      <trkpt lat="49.29808" lon="0.98015">
        <ele>130</ele>
        <time>2017-12-22T06:25:24Z</time>
      </trkpt>
      <trkpt lat="49.29902" lon="0.97883">
        <ele>127</ele>
        <time>2017-12-22T06:27:24Z</time>
      </trkpt>
      <trkpt lat="49.29966" lon="0.97852">
        <ele>128</ele>
        <time>2017-12-22T06:29:24Z</time>
      </trkpt>
      <trkpt lat="49.30007" lon="0.97748">
        <ele>128</ele>
        <time>2017-12-22T06:31:24Z</time>
      </trkpt>
      <trkpt lat="49.30085" lon="0.97494">
        <ele>127</ele>
        <time>2017-12-22T06:33:24Z</time>
      </trkpt>
      <trkpt lat="49.30103" lon="0.9751">
        <ele>127</ele>
        <time>2017-12-22T06:35:24Z</time>
      </trkpt>
      <trkpt lat="49.30183" lon="0.97457">
        <ele>127</ele>
        <time>2017-12-22T06:37:24Z</time>
      </trkpt>
      <trkpt lat="49.30214" lon="0.97442">
        <ele>126</ele>
        <time>2017-12-22T06:39:24Z</time>
      </trkpt>
      <trkpt lat="49.30274" lon="0.97358">
        <ele>124</ele>
        <time>2017-12-22T06:41:24Z</time>
      </trkpt>
      <trkpt lat="49.30319" lon="0.97345">
        <ele>123</ele>
        <time>2017-12-22T06:43:24Z</time>
      </trkpt>
      <trkpt lat="49.30431" lon="0.97214">
        <ele>114</ele>
        <time>2017-12-22T06:45:24Z</time>
      </trkpt>
      <trkpt lat="49.30531" lon="0.97212">
        <ele>118</ele>
        <time>2017-12-22T06:47:24Z</time>
      </trkpt>
      <trkpt lat="49.30545" lon="0.97191">
        <ele>118</ele>
        <time>2017-12-22T06:49:24Z</time>
      </trkpt>
      <trkpt lat="49.3066" lon="0.97212">
        <ele>119</ele>
        <time>2017-12-22T06:51:24Z</time>
      </trkpt>
      <trkpt lat="49.30717" lon="0.97163">
        <ele>122</ele>
        <time>2017-12-22T06:53:24Z</time>
      </trkpt>
      <trkpt lat="49.30731" lon="0.97103">
        <ele>123</ele>
        <time>2017-12-22T06:55:24Z</time>
      </trkpt>
      <trkpt lat="49.30769" lon="0.97028">
        <ele>124</ele>
        <time>2017-12-22T06:57:24Z</time>
      </trkpt>
      <trkpt lat="49.30789" lon="0.96955">
        <ele>125</ele>
        <time>2017-12-22T06:59:24Z</time>
      </trkpt>
      <trkpt lat="49.30847" lon="0.96779">
        <ele>126</ele>
        <time>2017-12-22T07:01:24Z</time>
      </trkpt>
      <trkpt lat="49.30894" lon="0.96693">
        <ele>126</ele>
        <time>2017-12-22T07:03:24Z</time>
      </trkpt>
      <trkpt lat="49.31022" lon="0.96461">
        <ele>122</ele>
        <time>2017-12-22T07:05:24Z</time>
      </trkpt>
      <trkpt lat="49.31074" lon="0.96234">
        <ele>115</ele>
        <time>2017-12-22T07:07:24Z</time>
      </trkpt>
      <trkpt lat="49.3113" lon="0.96257">
        <ele>117</ele>
        <time>2017-12-22T07:09:24Z</time>
      </trkpt>
      <trkpt lat="49.31183" lon="0.96337">
        <ele>118</ele>
        <time>2017-12-22T07:11:24Z</time>
      </trkpt>
      <trkpt lat="49.31257" lon="0.96249">
        <ele>123</ele>
        <time>2017-12-22T07:13:24Z</time>
      </trkpt>
      <trkpt lat="49.31306" lon="0.96103">
        <ele>126</ele>
        <time>2017-12-22T07:15:24Z</time>
      </trkpt>
      <trkpt lat="49.31315" lon="0.96034">
        <ele>126</ele>
        <time>2017-12-22T07:17:24Z</time>
      </trkpt>
      <trkpt lat="49.31326" lon="0.95989">
        <ele>127</ele>
        <time>2017-12-22T07:19:24Z</time>
      </trkpt>
      <trkpt lat="49.31329" lon="0.95927">
        <ele>128</ele>
        <time>2017-12-22T07:21:24Z</time>
      </trkpt>
      <trkpt lat="49.31311" lon="0.95858">
        <ele>129</ele>
        <time>2017-12-22T07:23:24Z</time>
      </trkpt>
      <trkpt lat="49.31287" lon="0.95809">
        <ele>130</ele>
        <time>2017-12-22T07:25:24Z</time>
      </trkpt>
      <trkpt lat="49.31242" lon="0.95794">
        <ele>129</ele>
        <time>2017-12-22T07:27:24Z</time>
      </trkpt>
      <trkpt lat="49.31179" lon="0.95772">
        <ele>126</ele>
        <time>2017-12-22T07:29:24Z</time>
      </trkpt>
      <trkpt lat="49.31243" lon="0.95395">
        <ele>131</ele>
        <time>2017-12-22T07:31:24Z</time>
      </trkpt>
      <trkpt lat="49.31159" lon="0.9485">
        <ele>128</ele>
        <time>2017-12-22T07:33:24Z</time>
      </trkpt>
      <trkpt lat="49.31112" lon="0.94356">
        <ele>118</ele>
        <time>2017-12-22T07:35:24Z</time>
      </trkpt>
      <trkpt lat="49.31085" lon="0.94365">
        <ele>117</ele>
        <time>2017-12-22T07:37:24Z</time>
      </trkpt>
      <trkpt lat="49.31048" lon="0.94363">
        <ele>117</ele>
        <time>2017-12-22T07:39:24Z</time>
      </trkpt>
      <trkpt lat="49.31" lon="0.94367">
        <ele>117</ele>
        <time>2017-12-22T07:41:24Z</time>
      </trkpt>
      <trkpt lat="49.30933" lon="0.94388">
        <ele>118</ele>
        <time>2017-12-22T07:43:24Z</time>
      </trkpt>
      <trkpt lat="49.30937" lon="0.9433">
        <ele>119</ele>
        <time>2017-12-22T07:45:24Z</time>
      </trkpt>
      <trkpt lat="49.30937" lon="0.94272">
        <ele>119</ele>
        <time>2017-12-22T07:47:24Z</time>
      </trkpt>
      <trkpt lat="49.30906" lon="0.93875">
        <ele>123</ele>
        <time>2017-12-22T07:49:24Z</time>
      </trkpt>
    </trkseg>
  </trk>
</gpx>